Hlavní strana
METAR-TAF:

METAR-TAF

Letiště :

Mezinárodní letiště Krále Abda al-Azíze

Džidda, Saúdská Arábie

zeměpisná šířka: 21-42N, zeměpisná délka: 039-11E, výška: 15 m

Aktuální stav počasí

Zpráva byla vytvořena před 55 minutami, v 01:00 UTC
Bezvětří
Teplota 27°C
Vlhkost vzduchu 42%
Tlak 1009 hPa
Viditelnost 10 km a více
Žádná oblačnost pod 1500 m, nevyskytují se cumulonimby.

METAR: OEJN 060100Z 00000KT CAVOK 27/13 Q1009 NOSIG

Čas: 04:55 (01:55 UTC)

Předpověď počasí

Zpráva byla vytvořena před 2 hodinami a 55 minutami, v 23:00 UTC
Předpověď platná od 06 v 00 UTC do 07 v 06 UTC
Východní vítr 6 kt
Viditelnost 10 km a více
Skoro jasno ve výšce 4000 ft
Změna
od 06 v 06 UTC do 06 v 08 UTC
Jihojihozápadní vítr 18 kt
Dočasný
od 06 v 10 UTC do 06 v 16 UTC
Viditelnost: 4000 m
zvířený prach
Změna
od 06 v 16 UTC do 06 v 18 UTC
Východojihovýchodní vítr 8 kt

TAF: OEJN 052300Z 0600/0706 09006KT 9999 FEW040 BECMG 0606/0608 20018KT TEMPO 0610/0616 4000 BLDU BECMG 0616/0618 12008KT

Stav a předpovědi počasí z více než 4 000 letišť (zprávy METAR a TAF).

Červené a žluté tečky na mapě představují dostupné meteorologické stanice.

Když kurzor umístíte na tečku, zobrazí se název stanice.

Pak kliknutím zobrazíte stav a předpověď počasí.

Chcete-li změnit mapu, kliknutím na zelené tlačítko se znaménkem +mapu přiblížíte, kliknutím na zelené tlačítko se znaménkem – mapu oddálíte a kliknutím na zelené šipky přejdete na sousední mapy.


METAR-TAF: